To NAV CANADA Home Page Login to a new session Search on AWWS site Disclaimer Vers la page française équivalente Tips FAQ What's new on the site To the Forecasts and Observations / NOTAM section To "File a Flight Plan" website Publications and other links Update of the User's profile FIC Telephone Numbers My Weather Data Folder Route Weather Data Regional Weather Data Local Weather Data To the Forecasts and Observations / NOTAM section
Request Generated 04/24/2019 at 16:20:13 UTC . Weather information available at that time is displayed.

METAR/TAF

ABBOTSFORD/BC    

METAR CYXX 241600Z 20007KT 30SM FEW022 SCT055 BKN062 09/04 A3034 RMK CU1SC3SC1 SLP276=
METAR CYXX 241500Z 19010KT 30SM SCT051 BKN063 09/04 A3034 RMK SC3SC2 SLP277=
METAR CYXX 241400Z 18008KT 25SM FEW030 BKN050 07/05 A3031 RMK SF1SC6 SF TR SLP268=

TAF CYXX 241138Z 2412/2512 VRB03KT P6SM FEW020 SCT050 TEMPO 2412/2416
BKN020 BKN050
FM241800 20007KT P6SM FEW020 BKN060
FM242100 22008KT P6SM SCT060
RMK NXT FCST BY 241800Z=
Your time UTC time
Weather data provided by Environment Canada and NAV CANADA